Time;durP1;ratioP1;P1;durP2;ratioP2;P2;SDS_P1;SDS_P2;PMS_P1;PMS_P2;Temp;Humidity;BMP_temperature;BMP_pressure;BME280_temperature;BME280_humidity;BME280_pressure;Samples;Min_cycle;Max_cycle;Signal;HPM_P1;HPM_P2
2022/01/10 00:00:40;;;;;;;21.48;10.02;;;7.00;99.90;;;7.16;81.08;100888.22;5074796;28;20051;-67
2022/01/10 00:03:11;;;;;;;23.20;9.60;;;6.90;99.90;;;7.03;81.36;100895.09;5075229;28;20055;-68
2022/01/10 00:05:39;;;;;;;22.83;9.30;;;6.90;99.90;;;7.08;81.40;100898.63;5075239;28;20410;-69
2022/01/10 00:08:08;;;;;;;24.27;9.75;;;6.90;99.90;;;7.00;81.20;100905.59;5075148;28;20141;-69
2022/01/10 00:10:37;;;;;;;20.08;8.73;;;6.80;99.90;;;6.90;81.59;100902.84;5074854;28;20136;-69
2022/01/10 00:13:05;;;;;;;26.60;9.75;;;6.60;99.90;;;6.81;81.93;100908.91;5073766;28;20052;-70
2022/01/10 00:15:34;;;;;;;26.15;10.48;;;6.60;99.90;;;6.83;82.42;100914.16;5074989;28;20127;-71
2022/01/10 00:18:02;;;;;;;21.60;10.38;;;6.50;99.90;;;6.87;83.07;100919.44;5074693;28;20148;-71
2022/01/10 00:20:32;;;;;;;29.15;11.07;;;6.60;99.90;;;6.88;82.75;100915.97;5074459;28;20040;-70
2022/01/10 00:23:01;;;;;;;27.45;10.18;;;6.60;99.90;;;6.92;83.08;100937.91;5073639;28;20060;-74
2022/01/10 00:25:29;;;;;;;26.85;10.82;;;6.70;99.90;;;6.81;83.53;100924.66;5074531;28;20043;-70
2022/01/10 00:27:58;;;;;;;25.10;9.75;;;6.60;99.90;;;6.73;84.76;100928.06;5074477;28;20463;-71
2022/01/10 00:30:27;;;;;;;29.25;10.00;;;6.50;99.90;;;6.84;84.73;100929.94;5074709;28;20075;-71
2022/01/10 00:32:55;;;;;;;24.42;9.57;;;6.60;99.90;;;6.96;84.68;100940.59;5074677;28;20048;-71
2022/01/10 00:35:24;;;;;;;22.35;9.98;;;6.70;99.90;;;7.01;84.35;100949.41;5074576;28;20114;-70
2022/01/10 00:37:54;;;;;;;25.48;10.25;;;6.70;99.90;;;6.93;84.33;100951.06;5074556;28;20102;-70
2022/01/10 00:40:22;;;;;;;21.60;9.75;;;6.70;99.90;;;6.79;84.48;100947.41;5074456;28;20063;-70
2022/01/10 00:42:55;;;;;;;22.73;9.55;;;6.60;99.90;;;6.79;84.86;100957.03;5073174;28;20075;-70
2022/01/10 00:45:26;;;;;;;26.38;10.52;;;6.50;99.90;;;6.79;84.59;100967.56;5074473;28;20049;-71
2022/01/10 00:47:56;;;;;;;28.58;10.85;;;6.50;99.90;;;6.82;84.89;100970.22;5074373;28;20048;-71
2022/01/10 00:50:26;;;;;;;24.95;11.23;;;6.50;99.90;;;6.83;84.92;100975.47;5073993;28;20057;-70
2022/01/10 00:52:57;;;;;;;24.07;10.10;;;6.60;99.90;;;6.77;84.60;100995.56;5073831;28;20053;-71
2022/01/10 00:55:25;;;;;;;24.45;11.00;;;6.60;99.90;;;6.78;85.08;100977.19;5073979;28;20049;-70
2022/01/10 00:57:54;;;;;;;29.70;10.75;;;6.60;99.90;;;6.82;85.05;100983.34;5073843;28;20036;-71
2022/01/10 01:00:23;;;;;;;28.90;11.45;;;6.70;99.90;;;6.77;84.81;100991.22;5072665;28;20482;-70
2022/01/10 01:02:51;;;;;;;30.00;11.60;;;6.70;99.90;;;6.82;85.21;101000.03;5072581;28;20056;-70
2022/01/10 01:05:22;;;;;;;27.80;10.98;;;6.70;99.90;;;6.80;85.13;101006.09;5072643;28;20048;-70
2022/01/10 01:07:50;;;;;;;;;;;6.70;99.90;;;6.79;85.06;101005.25;5074426;28;20072;-71
2022/01/10 01:10:51;;;;;;;27.03;11.30;;;6.80;99.90;;;6.35;84.70;100933.69;5073951;28;20011;-71
2022/01/10 01:13:26;;;;;;;22.55;10.07;;;6.70;99.90;;;6.81;84.84;101021.03;5073847;28;20139;-70
2022/01/10 01:16:10;;;;;;;21.23;10.20;;;6.60;99.90;;;6.67;84.40;101012.06;5072509;28;20048;-71
2022/01/10 01:24:13;;;;;;;27.00;12.23;;;6.20;99.90;;;6.53;85.04;101013.63;5073949;28;20071;-71
2022/01/10 01:26:45;;;;;;;25.05;10.25;;;6.30;99.90;;;6.58;85.27;101020.69;5073543;28;20460;-71
2022/01/10 01:29:17;;;;;;;24.60;11.02;;;6.40;99.90;;;6.56;84.58;101018.94;5071963;28;20076;-70
2022/01/10 01:31:46;;;;;;;28.05;10.93;;;6.50;99.90;;;6.59;84.26;101025.13;5073305;28;20075;-71
2022/01/10 01:34:16;;;;;;;25.80;10.70;;;6.50;99.90;;;6.60;84.00;101031.25;5071878;28;20045;-70
2022/01/10 01:36:50;;;;;;;28.73;11.33;;;6.50;99.90;;;6.63;84.21;101026.03;5072136;28;20057;-70
2022/01/10 01:39:21;;;;;;;26.42;10.82;;;6.50;99.90;;;6.67;84.43;101041.88;5072161;28;20520;-70
2022/01/10 01:42:02;;;;;;;33.78;12.30;;;6.60;99.90;;;6.80;84.53;101043.81;5073472;28;20044;-70
2022/01/10 01:44:31;;;;;;;23.10;10.85;;;6.60;99.90;;;6.75;84.28;101040.25;5072098;28;20076;-70
2022/01/10 01:47:00;;;;;;;25.30;11.73;;;6.70;99.90;;;6.85;84.43;101047.34;5071803;28;20052;-70
2022/01/10 01:49:29;;;;;;;32.65;12.18;;;6.70;99.90;;;6.81;84.39;101056.09;5072039;28;20732;-71
2022/01/10 01:51:58;;;;;;;24.33;12.13;;;6.70;99.90;;;6.80;84.47;101059.56;5071920;28;20154;-69
2022/01/10 01:54:26;;;;;;;30.17;12.43;;;6.70;99.90;;;6.79;84.74;101049.94;5072856;28;20044;-69
2022/01/10 01:56:57;;;;;;;22.98;11.35;;;6.70;99.90;;;6.82;84.78;101064.84;5071855;28;20053;-69
2022/01/10 01:59:26;;;;;;;25.10;11.77;;;6.60;99.90;;;6.79;84.59;101077.97;5071762;28;20048;-69
2022/01/10 02:01:54;;;;;;;22.92;11.50;;;6.60;99.90;;;6.64;84.95;101078.59;5071557;28;20546;-69
2022/01/10 02:04:23;;;;;;;33.50;12.13;;;6.40;99.90;;;6.53;86.06;101087.19;5071327;28;20084;-70
2022/01/10 02:06:56;;;;;;;22.58;12.35;;;6.30;99.90;;;6.54;86.24;101094.22;5071781;28;20436;-69
2022/01/10 02:09:25;;;;;;;26.67;12.20;;;6.30;99.90;;;6.62;86.32;101097.88;5072757;28;20071;-69
2022/01/10 02:11:56;;;;;;;;;;;6.30;99.90;;;6.69;86.13;101090.09;5072163;28;20083;-69
2022/01/10 02:14:25;;;;;;;28.50;13.10;;;6.50;99.90;;;6.73;86.19;101099.78;5105568;28;19964;-70
2022/01/10 02:16:55;;;;;;;31.38;13.25;;;6.60;99.90;;;6.78;86.36;101102.47;5071310;28;20079;-69
2022/01/10 02:19:40;;;;;;;29.15;14.38;;;6.60;99.90;;;6.81;86.34;101115.66;5071674;28;20099;-70
2022/01/10 02:22:10;;;;;;;25.67;13.85;;;6.70;99.90;;;6.84;86.10;101108.72;5073077;28;20375;-70
2022/01/10 02:24:59;;;;;;;26.90;13.47;;;6.70;99.90;;;6.84;86.15;101089.41;5071616;28;20139;-70
2022/01/10 02:27:29;;;;;;;25.48;13.57;;;6.80;99.90;;;6.42;85.12;101012.59;5071546;28;20097;-70
2022/01/10 02:29:57;;;;;;;22.40;12.88;;;6.80;99.90;;;7.08;85.68;101130.06;5072859;28;20052;-70
2022/01/10 02:32:26;;;;;;;25.00;12.98;;;6.90;99.90;;;7.08;85.04;101137.09;5072714;28;20066;-69
2022/01/10 02:34:54;;;;;;;31.15;12.88;;;6.90;99.90;;;7.16;85.02;101141.56;5071405;28;20105;-70
2022/01/10 02:37:37;;;;;;;28.35;13.43;;;7.00;99.90;;;7.11;84.66;101155.53;5073025;28;20079;-70
2022/01/10 02:40:14;;;;;;;28.67;13.68;;;6.90;99.90;;;7.21;84.61;101152.16;5071405;28;20056;-69
2022/01/10 02:42:43;;;;;;;27.77;13.57;;;7.00;99.90;;;7.34;84.37;101150.59;5071549;28;20059;-70
2022/01/10 02:45:13;;;;;;;;;;;7.10;99.90;;;7.40;84.29;101162.06;5070594;28;20512;-69
2022/01/10 02:47:42;;;;;;;28.48;13.52;;;7.20;99.90;;;7.44;84.22;101171.78;5070143;28;19927;-69
2022/01/10 02:50:13;;;;;;;28.63;13.57;;;7.30;99.90;;;7.51;84.03;101164.84;5070129;28;20053;-70
2022/01/10 02:52:45;;;;;;;28.48;13.68;;;7.30;99.90;;;7.51;83.56;101176.25;5104250;28;20057;-70
2022/01/10 02:55:15;;;;;;;26.00;14.30;;;7.30;99.90;;;7.51;83.72;101168.34;5071613;28;20055;-69
2022/01/10 02:57:45;;;;;;;23.17;12.82;;;7.30;99.90;;;7.48;83.29;101170.94;5071488;28;20045;-69
2022/01/10 03:00:18;;;;;;;24.27;12.88;;;7.30;99.90;;;7.24;82.27;101181.13;5070219;28;20132;-70
2022/01/10 03:02:49;;;;;;;20.42;12.45;;;7.10;99.90;;;7.04;82.73;101177.34;5070071;28;20055;-70
2022/01/10 03:05:21;;;;;;;25.45;13.57;;;6.80;99.90;;;6.97;83.17;101173.75;5070006;28;20056;-69
2022/01/10 03:07:52;;;;;;;;;;;6.80;99.90;;;7.04;82.67;101190.50;5072447;28;20040;-69
2022/01/10 03:10:21;;;;;;;27.02;13.35;;;6.80;99.90;;;6.99;83.41;101176.38;5070630;28;20285;-70
2022/01/10 03:12:50;;;;;;;24.65;12.13;;;6.80;99.90;;;7.12;83.41;101195.00;5070213;28;20048;-70
2022/01/10 03:15:18;;;;;;;22.48;12.90;;;6.90;99.90;;;7.21;83.46;101199.53;5073448;28;20433;-70
2022/01/10 03:17:48;;;;;;;22.17;13.35;;;6.90;99.90;;;7.26;83.25;101203.97;5073719;28;20062;-71
2022/01/10 03:20:17;;;;;;;28.05;12.85;;;7.00;99.90;;;7.37;83.04;101203.25;5074887;28;20481;-71
2022/01/10 03:22:46;;;;;;;23.35;14.55;;;7.10;99.90;;;7.36;82.78;101181.31;5073324;28;20068;-70
2022/01/10 03:25:15;;;;;;;33.20;15.38;;;7.20;99.90;;;7.52;82.93;101206.09;5074754;28;20068;-70
2022/01/10 03:27:47;;;;;;;29.10;13.93;;;7.30;99.90;;;7.66;83.01;101225.59;5073130;28;20055;-70
2022/01/10 03:30:17;;;;;;;29.38;14.63;;;7.40;99.90;;;7.71;82.77;101224.78;5074647;28;20044;-70
2022/01/10 03:32:48;;;;;;;32.50;15.05;;;7.50;99.90;;;7.24;82.77;101144.31;5073455;28;20055;-69
2022/01/10 03:35:26;;;;;;;32.08;14.15;;;7.60;99.90;;;7.84;82.60;101242.50;5073178;28;20044;-69
2022/01/10 03:37:55;;;;;;;31.38;14.57;;;7.60;99.90;;;7.78;82.36;101223.97;5073196;28;20048;-69
2022/01/10 03:40:27;;;;;;;22.77;14.60;;;7.60;99.90;;;7.89;82.39;101239.94;5072995;28;20052;-69
2022/01/10 03:43:00;;;;;;;29.35;14.63;;;7.70;99.90;;;7.94;82.42;101249.66;5073077;28;20045;-69
2022/01/10 03:45:28;;;;;;;29.60;14.15;;;7.70;99.90;;;7.89;82.04;101253.97;5072990;28;20140;-69
2022/01/10 03:47:57;;;;;;;25.55;13.32;;;7.70;99.90;;;7.28;82.28;101253.97;5072944;28;20142;-69
2022/01/10 03:50:28;;;;;;;;;;;7.20;99.90;;;7.29;82.81;101266.28;5073355;28;20485;-69
2022/01/10 03:52:57;;;;;;;25.80;13.18;;;7.10;99.90;;;7.23;83.69;101269.72;5072915;28;19920;-69
2022/01/10 03:55:27;;;;;;;27.27;13.88;;;7.00;99.90;;;7.36;83.98;101276.03;5073952;28;20037;-70
2022/01/10 03:57:58;;;;;;;21.92;13.75;;;7.10;99.90;;;7.46;83.85;101283.22;5072812;28;20063;-69
2022/01/10 04:00:27;;;;;;;23.58;13.45;;;7.20;99.90;;;7.55;83.42;101275.44;5072786;28;20089;-70
2022/01/10 04:03:00;;;;;;;30.98;14.63;;;7.30;99.90;;;7.68;83.25;101266.88;5074106;28;20052;-69
2022/01/10 04:05:35;;;;;;;27.05;14.63;;;7.40;99.90;;;7.73;83.49;101287.97;5072985;28;20053;-70
2022/01/10 04:08:05;;;;;;;26.92;14.18;;;7.50;99.90;;;7.81;83.48;101289.84;5072662;28;20094;-70
2022/01/10 04:10:35;;;;;;;25.92;13.57;;;7.50;99.90;;;7.86;83.09;101290.78;5072678;28;20057;-70
2022/01/10 04:13:03;;;;;;;26.92;14.23;;;7.60;99.90;;;7.90;82.73;101295.25;5074063;28;20413;-70
2022/01/10 04:15:33;;;;;;;24.83;14.98;;;7.70;99.90;;;7.92;82.56;101300.53;5073633;28;20052;-69
2022/01/10 04:18:02;;;;;;;26.48;14.20;;;7.70;99.90;;;7.79;82.46;101285.44;5073934;28;20048;-70
2022/01/10 04:20:31;;;;;;;22.77;13.27;;;7.60;99.90;;;7.85;82.38;101306.56;5074007;28;20041;-70
2022/01/10 04:23:00;;;;;;;24.17;14.52;;;7.60;99.90;;;7.79;82.07;101306.50;5073694;28;20425;-69
2022/01/10 04:25:28;;;;;;;28.65;14.52;;;7.60;99.90;;;7.84;81.93;101318.00;5072108;28;20076;-70
2022/01/10 04:27:58;;;;;;;25.05;14.40;;;7.60;99.90;;;7.83;82.51;101317.09;5073077;28;20441;-69
2022/01/10 04:30:30;;;;;;;25.95;14.10;;;7.60;99.90;;;7.76;82.64;101348.59;5073557;28;20036;-69
2022/01/10 04:33:01;;;;;;;25.95;13.88;;;7.60;99.90;;;7.78;83.04;101326.66;5072493;28;20060;-69
2022/01/10 04:35:32;;;;;;;27.00;14.52;;;7.50;99.90;;;7.83;83.05;101332.91;5073011;28;20473;-69
2022/01/10 04:38:00;;;;;;;;;;;7.60;99.90;;;7.87;83.14;101337.34;5073110;28;20117;-69
2022/01/10 04:40:29;;;;;;;21.88;14.70;;;7.60;99.90;;;7.88;82.93;101340.84;5105917;28;19921;-70
2022/01/10 04:43:00;;;;;;;26.40;14.70;;;7.60;99.90;;;7.91;82.98;101352.34;5071912;28;20049;-70
2022/01/10 04:45:28;;;;;;;20.33;13.80;;;7.60;99.90;;;7.90;82.81;101347.91;5071940;28;20048;-70
2022/01/10 04:47:58;;;;;;;29.45;14.30;;;7.70;99.90;;;7.93;82.93;101362.88;5071843;28;20055;-70
2022/01/10 04:53:25;;;;;;;28.60;14.23;;;7.70;99.90;;;7.89;82.59;101375.13;5034087;28;20076;-70
2022/01/10 04:55:55;;;;;;;25.23;14.80;;;7.70;99.90;;;7.86;82.32;101361.00;5062700;28;20072;-70
2022/01/10 04:58:25;;;;;;;24.60;14.23;;;7.70;99.90;;;7.72;81.81;101371.38;5072016;28;20055;-69
2022/01/10 05:00:55;;;;;;;29.83;13.52;;;7.50;99.90;;;7.71;81.94;101374.84;5072218;28;20490;-70
2022/01/10 05:03:26;;;;;;;31.25;14.93;;;7.50;99.90;;;7.67;82.18;101386.19;5071567;28;20048;-70
2022/01/10 05:05:56;;;;;;;23.05;14.10;;;7.40;99.90;;;7.73;82.12;101382.75;5071440;28;20040;-70
2022/01/10 05:08:26;;;;;;;30.83;14.70;;;7.50;99.90;;;7.65;82.29;101390.53;5071678;28;20060;-68
2022/01/10 05:10:56;;;;;;;30.77;14.95;;;7.50;99.90;;;7.49;82.51;101379.75;5071289;28;20075;-70
2022/01/10 05:13:26;;;;;;;29.13;15.07;;;7.50;99.90;;;7.75;82.48;101400.34;5071202;28;20506;-69
2022/01/10 05:15:56;;;;;;;24.50;14.88;;;7.50;99.90;;;7.84;82.42;101404.91;5072336;28;20075;-69
2022/01/10 05:18:25;;;;;;;23.58;14.40;;;7.60;99.90;;;7.90;82.52;101411.13;5071178;28;20045;-69
2022/01/10 05:20:53;;;;;;;23.85;14.48;;;7.70;99.90;;;7.92;82.09;101401.50;5072493;28;20040;-69
2022/01/10 05:23:22;;;;;;;30.13;15.48;;;7.70;99.90;;;7.98;81.91;101409.50;5070884;28;20078;-70
2022/01/10 05:25:50;;;;;;;34.13;15.52;;;7.70;99.90;;;7.99;82.08;101418.28;5070831;28;20052;-70
2022/01/10 05:28:19;;;;;;;26.77;16.17;;;7.80;99.90;;;7.99;82.16;101419.16;5070519;28;20125;-70
2022/01/10 05:30:52;;;;;;;28.90;15.10;;;7.80;99.90;;;7.94;82.76;101423.47;5070944;28;20207;-70
2022/01/10 05:33:25;;;;;;;30.80;15.40;;;7.80;99.90;;;7.90;82.38;101432.19;5070977;28;20156;-70
2022/01/10 05:35:53;;;;;;;27.88;15.38;;;7.70;99.90;;;7.86;82.31;101440.00;5072214;28;20046;-70
2022/01/10 05:38:22;;;;;;;25.30;15.75;;;7.70;99.90;;;7.85;82.40;101417.19;5070553;28;20048;-70
2022/01/10 05:40:50;;;;;;;28.05;15.88;;;7.70;99.90;;;7.93;82.35;101440.16;5072116;28;20055;-70
2022/01/10 05:43:20;;;;;;;28.00;14.60;;;7.80;99.90;;;7.89;82.24;101448.88;5072252;28;20442;-70
2022/01/10 05:45:51;;;;;;;25.83;15.80;;;7.80;99.90;;;7.78;82.75;101452.19;5070880;28;20058;-70
2022/01/10 05:48:25;;;;;;;26.33;14.52;;;7.70;99.90;;;7.72;82.67;101436.28;5070765;28;20047;-70
2022/01/10 05:50:59;;;;;;;30.27;16.17;;;7.70;99.90;;;7.97;82.77;101459.53;5070830;28;20136;-70
2022/01/10 05:53:29;;;;;;;23.15;14.85;;;7.80;99.90;;;7.97;82.70;101470.06;5070541;28;20056;-70
2022/01/10 05:55:59;;;;;;;28.48;16.13;;;7.80;99.90;;;7.96;82.75;101469.16;5070678;28;20048;-70
2022/01/10 05:58:30;;;;;;;32.67;15.73;;;7.80;99.90;;;8.00;82.44;101462.19;5070730;28;20049;-70
2022/01/10 06:01:00;;;;;;;25.27;15.32;;;7.80;99.90;;;7.97;83.03;101468.31;5070636;28;20066;-70
2022/01/10 06:03:29;;;;;;;29.48;17.15;;;7.80;99.90;;;8.09;82.47;101481.66;5072437;28;20045;-70
2022/01/10 06:06:05;;;;;;;28.27;15.65;;;7.90;99.90;;;8.08;82.05;101482.53;5070722;28;20516;-70
2022/01/10 06:08:33;;;;;;;30.05;16.73;;;7.90;99.90;;;8.03;82.53;101491.22;5070396;28;20059;-70
2022/01/10 06:11:02;;;;;;;27.00;15.77;;;7.80;99.90;;;8.02;82.45;101495.59;5070395;28;20053;-69
2022/01/10 06:13:41;;;;;;;28.73;16.70;;;7.80;99.90;;;8.07;82.63;101496.53;5070405;28;20036;-70
2022/01/10 06:16:13;;;;;;;28.23;15.50;;;7.90;99.90;;;8.11;81.96;101502.75;5070270;28;20057;-69
2022/01/10 06:18:44;;;;;;;28.27;16.85;;;7.90;99.90;;;8.06;81.89;101504.44;5070147;28;20052;-70
2022/01/10 06:21:12;;;;;;;30.65;15.93;;;7.90;99.90;;;8.01;82.53;101504.34;5071829;28;20041;-70
2022/01/10 06:23:41;;;;;;;29.83;15.25;;;7.90;99.90;;;8.09;82.27;101518.53;5070271;28;20151;-70
2022/01/10 06:26:09;;;;;;;26.65;16.70;;;7.90;99.90;;;8.08;82.28;101519.41;5070469;28;20051;-70
2022/01/10 06:28:39;;;;;;;29.25;16.55;;;7.90;99.90;;;8.10;82.44;101527.34;5070218;28;20049;-70
2022/01/10 06:31:13;;;;;;;30.70;16.83;;;7.90;99.90;;;8.03;82.47;101528.09;5070236;28;20795;-70
2022/01/10 06:33:51;;;;;;;30.80;16.35;;;7.90;99.90;;;8.04;82.47;101543.03;5070090;28;20135;-70
2022/01/10 06:36:19;;;;;;;35.35;16.77;;;7.90;99.90;;;7.98;82.75;101549.09;5070039;28;20049;-70
2022/01/10 06:38:50;;;;;;;27.75;16.27;;;7.90;99.90;;;7.96;82.51;101548.19;5070423;28;20352;-70
2022/01/10 06:41:19;;;;;;;33.35;17.88;;;7.80;99.90;;;7.94;82.72;101560.44;5069972;28;20052;-70
2022/01/10 06:43:48;;;;;;;28.33;17.38;;;7.80;99.90;;;7.88;82.86;101564.69;5069835;28;20048;-70
2022/01/10 06:46:20;;;;;;;29.17;16.98;;;7.80;99.90;;;7.90;83.29;101563.88;5070011;28;20498;-70
2022/01/10 06:48:49;;;;;;;30.23;17.15;;;7.70;99.90;;;7.87;83.04;101571.75;5069767;28;20466;-70
2022/01/10 06:51:21;;;;;;;30.92;16.48;;;7.70;99.90;;;7.90;83.43;101570.88;5074123;28;20153;-70
2022/01/10 06:53:51;;;;;;;34.10;17.33;;;7.70;99.90;;;7.92;83.82;101570.06;5073851;28;20079;-71
2022/01/10 06:56:20;;;;;;;37.58;18.85;;;7.70;99.90;;;7.95;83.86;101580.66;5073729;28;20171;-70
2022/01/10 06:58:48;;;;;;;27.85;17.50;;;7.70;99.90;;;7.99;83.73;101595.63;5073855;28;20041;-71
2022/01/10 07:01:27;;;;;;;29.58;16.73;;;7.70;99.90;;;7.98;83.43;101588.59;5073484;28;20167;-70
2022/01/10 07:03:57;;;;;;;;;;;7.70;99.90;;;8.01;83.27;101603.59;5074137;28;20037;-70
2022/01/10 07:06:26;;;;;;;30.70;17.52;;;7.80;99.90;;;8.02;83.21;101606.25;5073683;28;19920;-71
2022/01/10 07:08:56;;;;;;;32.35;18.60;;;7.80;99.90;;;8.00;83.27;101613.22;5073835;28;20048;-70
2022/01/10 07:11:35;;;;;;;31.77;18.05;;;7.80;99.90;;;8.05;82.99;101613.31;5073396;28;20048;-70
2022/01/10 07:14:05;;;;;;;30.52;17.70;;;7.80;99.90;;;7.90;82.68;101606.00;5073600;28;20072;-70
2022/01/10 07:16:35;;;;;;;28.85;18.05;;;7.80;99.90;;;7.98;82.58;101630.75;5073271;28;20045;-71
2022/01/10 07:19:06;;;;;;;33.15;16.77;;;7.80;99.90;;;7.99;82.72;101643.03;5073477;28;20045;-68
2022/01/10 07:21:39;;;;;;;33.47;18.10;;;7.80;99.90;;;8.06;82.61;101652.84;5073613;28;20055;-68
2022/01/10 07:24:10;;;;;;;26.63;17.48;;;7.80;99.90;;;8.07;82.58;101656.38;5073834;28;20051;-68
2022/01/10 07:26:39;;;;;;;27.45;17.30;;;7.80;99.90;;;8.06;82.40;101666.03;5074617;28;20041;-68
2022/01/10 07:29:08;;;;;;;32.17;19.10;;;7.90;99.90;;;8.02;82.79;101666.84;5074589;28;20059;-68
2022/01/10 07:31:38;;;;;;;34.42;18.35;;;7.80;99.90;;;8.05;82.90;101669.50;5074440;28;20044;-67
2022/01/10 07:34:10;;;;;;;32.13;18.63;;;7.90;99.90;;;8.12;82.93;101679.31;5074272;28;20075;-67
2022/01/10 07:36:39;;;;;;;32.88;17.80;;;7.90;99.90;;;8.17;82.29;101696.09;5073116;28;20051;-67
2022/01/10 07:39:08;;;;;;;33.15;19.33;;;7.90;99.90;;;8.20;82.20;101692.63;5074291;28;20045;-71
2022/01/10 07:41:36;;;;;;;32.47;19.17;;;7.90;99.90;;;8.20;82.56;101701.44;5074752;28;20091;-72
2022/01/10 07:44:09;;;;;;;29.23;18.50;;;8.00;99.90;;;8.16;82.59;101707.50;5073379;28;20048;-71
2022/01/10 07:46:39;;;;;;;33.08;19.52;;;7.90;99.90;;;8.14;82.90;101713.59;5074357;28;20068;-69
2022/01/10 07:49:08;;;;;;;36.67;19.52;;;7.90;99.90;;;8.11;83.03;101711.78;5072897;28;20059;-71
2022/01/10 07:51:36;;;;;;;34.15;20.60;;;7.90;99.90;;;8.07;83.12;101722.25;5074388;28;20083;-68
2022/01/10 07:54:04;;;;;;;33.28;20.48;;;7.90;99.90;;;7.52;82.69;101638.63;5074032;28;20413;-68
2022/01/10 07:56:33;;;;;;;35.45;22.40;;;7.90;99.90;;;7.79;83.00;101722.53;5073995;28;20418;-68
2022/01/10 07:59:01;;;;;;;37.28;19.80;;;7.70;99.90;;;7.75;83.09;101726.88;5073926;28;20117;-69
2022/01/10 08:01:30;;;;;;;31.05;20.27;;;7.60;99.90;;;7.71;83.10;101729.41;5072367;28;20080;-68
2022/01/10 08:04:00;;;;;;;37.25;20.90;;;7.60;99.90;;;7.68;83.38;101746.03;5073638;28;20052;-69
2022/01/10 08:06:28;;;;;;;33.95;19.83;;;7.60;99.90;;;7.67;83.64;101746.88;5073980;28;20044;-70
2022/01/10 08:08:57;;;;;;;38.15;20.65;;;7.50;99.90;;;7.67;84.19;101749.50;5072571;28;20063;-70
2022/01/10 08:11:27;;;;;;;40.75;21.58;;;7.50;99.90;;;7.76;84.28;101752.34;5073598;28;20140;-70
2022/01/10 08:13:56;;;;;;;33.33;21.73;;;7.50;99.90;;;7.86;83.98;101746.41;5073711;28;20128;-70
2022/01/10 08:16:25;;;;;;;39.63;21.20;;;7.60;99.90;;;7.93;83.96;101753.59;5072286;28;20056;-70
2022/01/10 08:18:54;;;;;;;42.03;21.85;;;7.70;99.90;;;7.99;83.72;101763.38;5072207;28;20048;-68
2022/01/10 08:21:24;;;;;;;41.45;21.58;;;7.80;99.90;;;8.00;83.77;101763.38;5073311;28;20040;-69
2022/01/10 08:23:52;;;;;;;39.40;21.98;;;7.90;99.90;;;8.05;83.46;101774.03;5073324;28;20047;-69
2022/01/10 08:26:21;;;;;;;40.45;22.85;;;7.90;99.90;;;7.83;83.56;101780.59;5073222;28;20139;-69
2022/01/10 08:28:49;;;;;;;36.83;21.30;;;7.80;99.90;;;7.84;83.80;101786.75;5073170;28;20494;-70
2022/01/10 08:31:18;;;;;;;41.88;22.10;;;7.70;99.90;;;7.72;83.85;101790.00;5073204;28;20466;-69
2022/01/10 08:33:48;;;;;;;38.90;21.25;;;7.60;99.90;;;7.82;83.84;101797.22;5073456;28;20076;-69
2022/01/10 08:36:16;;;;;;;40.45;21.75;;;7.60;99.90;;;7.91;83.86;101792.19;5073636;28;20128;-69
2022/01/10 08:38:46;;;;;;;34.47;21.73;;;7.70;99.90;;;7.86;83.95;101782.38;5073066;28;20078;-69
2022/01/10 08:41:15;;;;;;;35.42;23.10;;;7.70;99.90;;;7.75;83.56;101790.06;5073216;28;20249;-68
2022/01/10 08:43:43;;;;;;;38.95;22.52;;;7.60;99.90;;;7.87;83.96;101815.78;5072766;28;20360;-71
2022/01/10 08:46:12;;;;;;;40.53;23.45;;;7.60;99.90;;;7.93;83.92;101815.91;5072890;28;20048;-69
2022/01/10 08:48:50;;;;;;;34.45;23.25;;;7.70;99.90;;;8.01;83.87;101815.19;5073038;28;20124;-69
2022/01/10 08:51:19;;;;;;;38.60;24.35;;;7.80;99.90;;;7.97;84.08;101818.66;5072823;28;20041;-69
2022/01/10 08:53:49;;;;;;;45.25;24.70;;;7.80;99.90;;;8.03;83.65;101825.81;5073036;28;20052;-69
2022/01/10 08:56:17;;;;;;;43.37;24.87;;;7.80;99.90;;;7.82;83.77;101826.19;5073054;28;20475;-69
2022/01/10 08:58:46;;;;;;;48.20;25.55;;;7.80;99.90;;;7.56;84.44;101814.22;5072938;28;20325;-69
2022/01/10 09:01:14;;;;;;;41.90;25.65;;;7.60;99.90;;;7.74;84.61;101824.28;5071671;28;20045;-69
2022/01/10 09:03:43;;;;;;;42.28;25.30;;;7.60;99.90;;;7.76;84.80;101839.22;5071214;28;20720;-69
2022/01/10 09:06:12;;;;;;;37.85;24.73;;;7.60;99.90;;;7.72;84.56;101844.41;5073059;28;20048;-69
2022/01/10 09:08:43;;;;;;;39.83;24.25;;;7.60;99.90;;;7.70;84.76;101844.38;5072755;28;20127;-69
2022/01/10 09:11:13;;;;;;;37.22;23.17;;;7.50;99.90;;;7.84;84.95;101852.59;5073284;28;20082;-69
2022/01/10 09:13:42;;;;;;;37.05;24.00;;;7.60;99.90;;;7.96;84.51;101848.47;5071071;28;20106;-69
2022/01/10 09:16:11;;;;;;;39.50;24.08;;;7.80;99.90;;;7.80;84.88;101856.88;5072425;28;20044;-69
2022/01/10 09:18:40;;;;;;;39.85;25.98;;;7.60;99.90;;;7.86;84.71;101859.66;5072674;28;20419;-69
2022/01/10 09:21:08;;;;;;;40.33;25.30;;;7.60;99.90;;;7.85;84.89;101860.53;5072561;28;20147;-69
2022/01/10 09:23:37;;;;;;;37.55;26.35;;;7.60;99.90;;;7.68;84.94;101866.25;5071099;28;20052;-69
2022/01/10 09:26:05;;;;;;;41.30;26.95;;;7.60;99.90;;;7.66;85.28;101871.50;5071015;28;20486;-69
2022/01/10 09:28:35;;;;;;;44.28;27.85;;;7.60;99.90;;;7.10;85.11;101754.34;5071959;28;20075;-69
2022/01/10 09:31:03;;;;;;;43.65;25.98;;;7.60;99.90;;;7.70;85.62;101878.63;5072133;28;20055;-69
2022/01/10 09:33:32;;;;;;;42.53;27.65;;;7.60;99.90;;;7.76;86.03;101870.84;5071925;28;20106;-69
2022/01/10 09:36:01;;;;;;;39.30;25.88;;;7.70;99.90;;;7.87;86.07;101881.63;5071883;28;20238;-70
2022/01/10 09:38:29;;;;;;;42.25;25.55;;;7.80;99.90;;;8.03;85.75;101889.03;5071870;28;20409;-71
2022/01/10 09:40:58;;;;;;;38.90;24.65;;;7.90;99.90;;;8.09;85.30;101890.03;5072213;28;20119;-69
2022/01/10 09:43:27;;;;;;;38.83;25.73;;;7.90;99.90;;;7.99;85.68;101889.81;5070260;28;20064;-69
2022/01/10 09:45:57;;;;;;;34.70;24.45;;;7.90;99.90;;;8.05;86.01;101893.44;5070604;28;20547;-69
2022/01/10 09:48:25;;;;;;;41.17;24.33;;;7.90;99.90;;;8.15;86.12;101892.81;5071778;28;20091;-69
2022/01/10 09:51:14;;;;;;;39.78;25.02;;;7.90;99.90;;;8.23;86.00;101909.69;5071709;28;20057;-69
2022/01/10 09:53:43;;;;;;;42.30;26.58;;;8.00;99.90;;;8.18;86.00;101918.34;5071942;28;20115;-69
2022/01/10 09:56:11;;;;;;;44.78;26.75;;;7.90;99.90;;;8.25;86.69;101919.38;5070532;28;20502;-69
2022/01/10 09:58:41;;;;;;;41.90;25.40;;;8.00;99.90;;;8.30;86.15;101926.56;5071905;28;20056;-69
2022/01/10 10:01:16;;;;;;;46.78;26.48;;;8.10;99.90;;;8.44;86.45;101934.75;5071548;28;20045;-69
2022/01/10 10:03:47;;;;;;;40.65;26.88;;;8.20;99.90;;;8.52;85.82;101941.97;5071917;28;20064;-71
2022/01/10 10:06:17;;;;;;;34.35;24.15;;;8.30;99.90;;;8.62;85.88;101943.03;5071507;28;20464;-70
2022/01/10 10:08:46;;;;;;;41.80;24.38;;;8.40;99.90;;;8.77;85.36;101953.88;5070550;28;20414;-69
2022/01/10 10:11:16;;;;;;;44.50;25.48;;;8.50;99.90;;;8.79;85.48;101955.72;5071428;28;20056;-69
2022/01/10 10:13:51;;;;;;;45.55;24.00;;;8.60;99.90;;;8.85;85.30;101961.13;5071443;28;20064;-69
2022/01/10 10:16:22;;;;;;;46.05;23.80;;;8.70;99.90;;;8.93;84.85;101956.00;5071561;28;20456;-69
2022/01/10 10:18:50;;;;;;;;;;;8.70;99.90;;;9.04;84.64;101972.91;5071945;28;20071;-69
2022/01/10 10:21:21;;;;;;;38.15;22.92;;;8.80;99.90;;;9.07;84.28;101980.91;5070318;28;20275;-69
2022/01/10 10:23:50;;;;;;;41.58;23.38;;;8.90;99.90;;;9.10;84.19;101986.22;5071569;28;20045;-69
2022/01/10 10:26:21;;;;;;;40.90;22.77;;;8.90;99.90;;;9.14;83.69;101980.16;5070034;28;20049;-69
2022/01/10 10:28:53;;;;;;;41.75;21.40;;;8.90;99.90;;;9.21;83.63;101986.44;5070005;28;20048;-70
2022/01/10 10:31:28;;;;;;;41.22;21.25;;;9.00;99.90;;;9.21;82.85;101984.72;5070334;28;20564;-69
2022/01/10 10:34:01;;;;;;;31.17;20.10;;;9.00;99.90;;;9.22;82.93;101997.03;5070371;28;20147;-69
2022/01/10 10:36:33;;;;;;;35.65;20.15;;;9.00;99.90;;;9.23;82.38;101996.19;5071448;28;20110;-69